Latest Weather Observations for Ocean Reef

IDW60901

Issued at 8:51 am WST Monday 19 April 2021 (issued every 10 minutes, with the page automatically refreshed every 10 minutes)

About weather observations | Map of Perth area stations | Latest observations for Perth area | Other Formats
Station Details ID: 009214 Name: OCEAN REEF Lat: -31.76 Lon: 115.73 Height: 10.0 m
Data from the previous 72 hours. | See also: Recent months at Ocean Reef
Date/Time
WST
Temp
°C
App
Temp
°C
Dew
Point
°C
Rel
Hum
%
Delta-T
°C
Wind Press
QNH
hPa
Press
MSL
hPa
Rain since
9am
mm
Dir  Spd
km/h
Gust
km/h
Spd
kts
Gust
kts
19/08:30am - - - - - ESE 15 20 8 11 - - -
19/08:00am - - - - - ESE 15 19 8 10 - - -
19/07:30am - - - - - SE 15 19 8 10 - - -
19/07:00am - - - - - ESE 17 24 9 13 - - -
19/06:30am - - - - - SE 19 22 10 12 - - -
19/06:00am - - - - - SE 17 20 9 11 - - -
19/05:30am - - - - - SE 15 19 8 10 - - -
19/05:00am - - - - - SE 15 19 8 10 - - -
19/04:30am - - - - - SE 15 19 8 10 - - -
19/04:00am - - - - - SE 13 15 7 8 - - -
19/03:30am - - - - - SE 13 15 7 8 - - -
19/03:00am - - - - - SSE 11 13 6 7 - - -
19/02:30am - - - - - SSE 9 11 5 6 - - -
19/02:00am - - - - - SE 7 9 4 5 - - -
19/01:30am - - - - - SSE 9 11 5 6 - - -
19/01:00am - - - - - SE 11 13 6 7 - - -
19/12:30am - - - - - SSE 15 19 8 10 - - -
19/12:00am - - - - - SSE 17 19 9 10 - - -
 
Date/Time
WST
Temp
°C
App
Temp
°C
Dew
Point
°C
Rel
Hum
%
Delta-T
°C
Wind Press
QNH
hPa
Press
MSL
hPa
Rain since
9am
mm
Dir  Spd
km/h
Gust
km/h
Spd
kts
Gust
kts
18/11:30pm - - - - - SSE 17 20 9 11 - - -
18/11:00pm - - - - - SSE 13 19 7 10 - - -
18/10:30pm - - - - - SSE 17 24 9 13 - - -
18/10:00pm - - - - - SSE 20 26 11 14 - - -
18/09:30pm - - - - - SSE 17 26 9 14 - - -
18/09:00pm - - - - - SSE 19 26 10 14 - - -
18/08:30pm - - - - - SSE 22 32 12 17 - - -
18/08:00pm - - - - - SSE 24 32 13 17 - - -
18/07:30pm - - - - - SSE 28 33 15 18 - - -
18/07:00pm - - - - - SSE 24 35 13 19 - - -
18/06:30pm - - - - - S 30 37 16 20 - - -
18/06:00pm - - - - - S 32 37 17 20 - - -
18/05:30pm - - - - - S 32 37 17 20 - - -
18/05:00pm - - - - - S 30 37 16 20 - - -
18/04:30pm - - - - - S 30 37 16 20 - - -
18/04:00pm - - - - - S 28 35 15 19 - - -
18/03:30pm - - - - - S 28 33 15 18 - - -
18/03:00pm - - - - - SSW 28 32 15 17 - - -
18/02:30pm - - - - - SW 22 28 12 15 - - -
18/02:00pm - - - - - SW 22 28 12 15 - - -
18/01:30pm - - - - - SW 22 26 12 14 - - -
18/01:00pm - - - - - SSW 13 19 7 10 - - -
18/12:30pm - - - - - E 11 20 6 11 - - -
18/12:00pm - - - - - E 11 17 6 9 - - -
18/11:30am - - - - - E 15 22 8 12 - - -
18/11:00am - - - - - E 17 22 9 12 - - -
18/10:30am - - - - - ENE 17 22 9 12 - - -
18/10:00am - - - - - E 17 22 9 12 - - -
18/09:30am - - - - - E 19 28 10 15 - - -
18/09:00am - - - - - E 22 32 12 17 - - -
18/08:30am - - - - - E 20 26 11 14 - - -
18/08:00am - - - - - E 19 28 10 15 - - -
18/07:30am - - - - - E 19 26 10 14 - - -
18/07:00am - - - - - E 19 26 10 14 - - -
18/06:30am - - - - - E 20 26 11 14 - - -
18/06:00am - - - - - E 19 24 10 13 - - -
18/05:30am - - - - - E 17 22 9 12 - - -
18/05:00am - - - - - E 17 22 9 12 - - -
18/04:30am - - - - - E 17 24 9 13 - - -
18/04:00am - - - - - E 17 19 9 10 - - -
18/03:30am - - - - - E 17 19 9 10 - - -
18/03:00am - - - - - ENE 15 19 8 10 - - -
18/02:30am - - - - - E 15 17 8 9 - - -
18/02:00am - - - - - E 15 19 8 10 - - -
18/01:30am - - - - - E 13 17 7 9 - - -
18/01:00am - - - - - E 13 15 7 8 - - -
18/12:30am - - - - - E 13 17 7 9 - - -
18/12:00am - - - - - E 11 15 6 8 - - -
 
Date/Time
WST
Temp
°C
App
Temp
°C
Dew
Point
°C
Rel
Hum
%
Delta-T
°C
Wind Press
QNH
hPa
Press
MSL
hPa
Rain since
9am
mm
Dir  Spd
km/h
Gust
km/h
Spd
kts
Gust
kts
17/11:30pm - - - - - E 11 13 6 7 - - -
17/11:00pm - - - - - E 11 13 6 7 - - -
17/10:30pm - - - - - ESE 13 19 7 10 - - -
17/10:00pm - - - - - ESE 13 15 7 8 - - -
17/09:30pm - - - - - SE 13 17 7 9 - - -
17/09:00pm - - - - - SE 13 15 7 8 - - -
17/08:30pm - - - - - SE 13 15 7 8 - - -
17/08:00pm - - - - - SSE 15 20 8 11 - - -
17/07:30pm - - - - - SSE 13 15 7 8 - - -
17/07:00pm - - - - - SSE 19 26 10 14 - - -
17/06:30pm - - - - - SSE 20 28 11 15 - - -
17/06:00pm - - - - - S 28 33 15 18 - - -
17/05:30pm - - - - - S 26 32 14 17 - - -
17/05:00pm - - - - - S 30 33 16 18 - - -
17/04:30pm - - - - - S 26 32 14 17 - - -
17/04:00pm - - - - - S 22 33 12 18 - - -
17/03:30pm - - - - - SSW 22 30 12 16 - - -
17/03:00pm - - - - - SSW 17 26 9 14 - - -
17/02:30pm - - - - - SSW 20 28 11 15 - - -
17/02:00pm - - - - - SSW 19 26 10 14 - - -
17/01:30pm - - - - - SSW 13 20 7 11 - - -
17/01:00pm - - - - - S 9 13 5 7 - - -
17/12:30pm - - - - - NE 13 20 7 11 - - -
17/12:00pm - - - - - ENE 15 26 8 14 - - -
17/11:30am - - - - - NE 15 20 8 11 - - -
17/11:00am - - - - - ENE 20 28 11 15 - - -
17/10:30am - - - - - ENE 19 30 10 16 - - -
17/10:00am - - - - - ENE 22 33 12 18 - - -
17/09:30am - - - - - ENE 24 32 13 17 - - -
17/09:00am - - - - - ENE 26 37 14 20 - - -
17/08:30am - - - - - ENE 22 32 12 17 - - -
17/08:00am - - - - - E 24 32 13 17 - - -
17/07:30am - - - - - E 20 33 11 18 - - -
17/07:00am - - - - - E 19 26 10 14 - - -
17/06:30am - - - - - E 17 24 9 13 - - -
17/06:00am - - - - - E 17 24 9 13 - - -
17/05:30am - - - - - E 17 24 9 13 - - -
17/05:00am - - - - - E 17 26 9 14 - - -
17/04:30am - - - - - E 19 32 10 17 - - -
17/04:00am - - - - - ENE 17 26 9 14 - - -
17/03:30am - - - - - E 17 26 9 14 - - -
17/03:00am - - - - - E 17 22 9 12 - - -
17/02:30am - - - - - ENE 15 20 8 11 - - -
17/02:00am - - - - - E 15 22 8 12 - - -
17/01:30am - - - - - E 19 26 10 14 - - -
17/01:00am - - - - - ESE 15 19 8 10 - - -
17/12:30am - - - - - E 13 19 7 10 - - -
17/12:00am - - - - - E 13 19 7 10 - - -
 
Date/Time
WST
Temp
°C
App
Temp
°C
Dew
Point
°C
Rel
Hum
%
Delta-T
°C
Wind Press
QNH
hPa
Press
MSL
hPa
Rain since
9am
mm
Dir  Spd
km/h
Gust
km/h
Spd
kts
Gust
kts
16/11:30pm - - - - - E 13 17 7 9 - - -
16/11:00pm - - - - - E 17 20 9 11 - - -
16/10:30pm - - - - - E 19 26 10 14 - - -
16/10:00pm - - - - - E 17 22 9 12 - - -
16/09:30pm - - - - - E 15 19 8 10 - - -
16/09:00pm - - - - - ESE 13 19 7 10 - - -
16/08:30pm - - - - - ESE 15 17 8 9 - - -
16/08:00pm - - - - - SE 15 19 8 10 - - -
16/07:30pm - - - - - SE 13 15 7 8 - - -
16/07:00pm - - - - - SE 13 15 7 8 - - -
16/06:30pm - - - - - SSE 13 17 7 9 - - -
16/06:00pm - - - - - SSE 11 17 6 9 - - -
16/05:30pm - - - - - ESE 15 19 8 10 - - -
16/05:00pm - - - - - SE 17 24 9 13 - - -
16/04:30pm - - - - - SE 19 24 10 13 - - -
16/04:00pm - - - - - ESE 13 22 7 12 - - -
16/03:30pm - - - - - ESE 13 26 7 14 - - -
16/03:00pm - - - - - E 13 19 7 10 - - -
16/02:30pm - - - - - ESE 13 20 7 11 - - -
16/02:00pm - - - - - ENE 13 20 7 11 - - -
16/01:30pm - - - - - E 13 26 7 14 - - -
16/01:00pm - - - - - E 15 28 8 15 - - -
16/12:30pm - - - - - ENE 13 22 7 12 - - -
16/12:00pm - - - - - ENE 15 20 8 11 - - -
16/11:30am - - - - - ENE 19 30 10 16 - - -
16/11:00am - - - - - ENE 20 28 11 15 - - -
16/10:30am - - - - - ENE 22 30 12 16 - - -
16/10:00am - - - - - ENE 20 30 11 16 - - -
16/09:30am - - - - - ENE 30 41 16 22 - - -
16/09:00am - - - - - ENE 24 33 13 18 - - -

Latest Capital City Observations: Canberra | Sydney | Melbourne | Brisbane | Adelaide | Perth | Hobart | Darwin

Other formats

Comma delimited format used in spreadsheet applications
http://www.bom.gov.au/fwo/IDW60901/IDW60901.94607.axf

JavaScript Object Notation format (JSON) in row-major order
http://www.bom.gov.au/fwo/IDW60901/IDW60901.94607.json

Data quality

Most of these data are generated automatically and are frequently updated. Quality checks on data are not normally performed. It is possible for incorrect values to appear. Refer to information at About Latest Weather Observations and please check the disclaimer before using these data.